Time;durP1;ratioP1;P1;durP2;ratioP2;P2;SDS_P1;SDS_P2;PMS_P1;PMS_P2;Temp;Humidity;BMP_temperature;BMP_pressure;BME280_temperature;BME280_humidity;BME280_pressure;Samples;Min_cycle;Max_cycle;Signal;HPM_P1;HPM_P2
2023/03/07 00:00:35;;;;;;;4.45;2.13;;;12.70;92.90;;;;;;5034730;28;20474;-68
2023/03/07 00:03:01;;;;;;;2.90;1.58;;;12.70;92.80;;;;;;5034599;28;20025;-65
2023/03/07 00:05:27;;;;;;;3.58;1.42;;;12.70;92.90;;;;;;5034598;28;20033;-65
2023/03/07 00:07:52;;;;;;;5.10;2.30;;;12.70;92.90;;;;;;5034432;28;20048;-67
2023/03/07 00:10:18;;;;;;;4.32;2.00;;;12.60;92.90;;;;;;5034609;28;20060;-66
2023/03/07 00:12:43;;;;;;;4.13;2.05;;;12.70;92.90;;;;;;5034244;28;20194;-68
2023/03/07 00:15:10;;;;;;;3.10;1.60;;;12.70;92.90;;;;;;5034483;28;20371;-66
2023/03/07 00:17:36;;;;;;;3.42;1.90;;;12.70;92.90;;;;;;5034432;28;20025;-67
2023/03/07 00:20:06;;;;;;;4.30;2.10;;;12.60;92.80;;;;;;5034258;28;20029;-64
2023/03/07 00:22:32;;;;;;;3.50;2.17;;;12.50;92.90;;;;;;5034232;28;20014;-67
2023/03/07 00:24:58;;;;;;;3.80;1.83;;;12.50;93.00;;;;;;5034214;28;20033;-65
2023/03/07 00:27:23;;;;;;;3.65;1.42;;;12.50;93.00;;;;;;5034287;28;20562;-68
2023/03/07 00:29:49;;;;;;;2.38;1.00;;;12.60;93.10;;;;;;5034206;28;20029;-66
2023/03/07 00:32:15;;;;;;;4.50;1.90;;;12.60;93.00;;;;;;5016491;28;20067;-64
2023/03/07 00:34:40;;;;;;;4.50;2.17;;;12.60;93.00;;;;;;5033801;28;20067;-67
2023/03/07 00:37:06;;;;;;;4.55;1.63;;;12.60;92.90;;;;;;5034089;28;20505;-66
2023/03/07 00:39:32;;;;;;;4.78;1.98;;;12.60;93.00;;;;;;5033764;28;20036;-65
2023/03/07 00:41:58;;;;;;;3.35;1.63;;;12.50;92.90;;;;;;5033911;28;20025;-67
2023/03/07 00:44:25;;;;;;;3.13;1.60;;;12.50;93.00;;;;;;5034041;28;20096;-65
2023/03/07 00:46:52;;;;;;;3.97;1.65;;;12.50;93.00;;;;;;5034093;28;20063;-64
2023/03/07 00:49:19;;;;;;;4.57;1.95;;;12.50;93.00;;;;;;5033320;28;20052;-67
2023/03/07 00:51:44;;;;;;;4.35;1.30;;;12.50;93.00;;;;;;5033642;28;20024;-70
2023/03/07 00:54:10;;;;;;;2.47;1.63;;;12.50;93.10;;;;;;5033649;28;20104;-67
2023/03/07 00:56:36;;;;;;;3.17;1.65;;;12.50;93.00;;;;;;5033773;28;20201;-65
2023/03/07 00:59:01;;;;;;;4.10;1.83;;;12.60;92.90;;;;;;5033669;28;20026;-65
2023/03/07 01:01:27;;;;;;;3.45;1.83;;;12.60;92.90;;;;;;5033618;28;20029;-63
2023/03/07 01:03:53;;;;;;;3.88;1.98;;;12.60;92.90;;;;;;5033129;28;20022;-65
2023/03/07 01:06:20;;;;;;;3.67;1.45;;;12.50;93.10;;;;;;5033403;28;20453;-69
2023/03/07 01:08:46;;;;;;;2.58;1.20;;;12.50;92.90;;;;;;5033291;28;20053;-68
2023/03/07 01:11:12;;;;;;;2.28;1.40;;;12.50;93.00;;;;;;5033113;28;20395;-67
2023/03/07 01:13:38;;;;;;;2.45;1.00;;;12.60;93.00;;;;;;5032975;28;20026;-65
2023/03/07 01:16:27;;;;;;;2.70;1.70;;;12.60;92.90;;;;;;5032060;28;20032;-64
2023/03/07 01:18:55;;;;;;;3.25;1.98;;;12.60;92.80;;;;;;5033028;28;20032;-65
2023/03/07 01:21:24;;;;;;;4.30;2.20;;;12.50;92.80;;;;;;5033107;28;20519;-66
2023/03/07 01:23:50;;;;;;;4.32;1.75;;;12.50;92.80;;;;;;5032864;28;20104;-66
2023/03/07 01:26:19;;;;;;;3.33;1.48;;;12.50;92.80;;;;;;5033284;28;20022;-63
2023/03/07 01:28:46;;;;;;;4.03;2.30;;;12.50;92.80;;;;;;5033108;28;20592;-65
2023/03/07 01:31:12;;;;;;;4.68;2.33;;;12.40;92.80;;;;;;5032820;28;20021;-67
2023/03/07 01:33:37;;;;;;;3.70;1.73;;;12.40;92.90;;;;;;5032875;28;20025;-68
2023/03/07 01:36:04;;;;;;;2.88;1.33;;;12.40;92.90;;;;;;5033254;28;20021;-66
2023/03/07 01:38:32;;;;;;;2.15;1.05;;;12.40;93.00;;;;;;5033057;28;20479;-69
2023/03/07 01:41:00;;;;;;;2.88;1.73;;;12.50;92.90;;;;;;5032839;28;20116;-65
2023/03/07 01:43:28;;;;;;;3.33;1.85;;;12.40;92.90;;;;;;5033108;28;20105;-68
2023/03/07 01:46:34;;;;;;;2.92;1.48;;;12.40;92.90;;;;;;5032839;28;20037;-68
2023/03/07 01:49:06;;;;;;;3.63;2.13;;;12.40;92.80;;;;;;5032957;28;20034;-69
2023/03/07 01:51:35;;;;;;;3.77;2.03;;;12.40;92.80;;;;;;5032676;28;20018;-68
2023/03/07 01:54:01;;;;;;;5.15;1.98;;;12.40;92.90;;;;;;5032698;28;20267;-68
2023/03/07 01:56:27;;;;;;;3.45;1.35;;;12.40;92.90;;;;;;5032578;28;20108;-69
2023/03/07 01:58:54;;;;;;;2.55;1.00;;;12.40;92.90;;;;;;5032627;28;20383;-66
2023/03/07 02:01:20;;;;;;;3.05;1.75;;;12.50;92.80;;;;;;5032272;28;20502;-67
2023/03/07 02:03:49;;;;;;;3.15;1.08;;;12.40;92.80;;;;;;5032832;28;20018;-68
2023/03/07 02:06:15;;;;;;;2.75;1.60;;;12.50;92.70;;;;;;5032262;28;20038;-66
2023/03/07 02:08:43;;;;;;;1.85;0.90;;;12.50;92.70;;;;;;5032670;28;20038;-66
2023/03/07 02:11:10;;;;;;;4.05;1.10;;;12.50;92.60;;;;;;5031696;28;20018;-65
2023/03/07 02:13:36;;;;;;;2.83;1.27;;;12.50;92.60;;;;;;5032456;28;20029;-68
2023/03/07 02:16:02;;;;;;;3.40;1.30;;;12.50;92.60;;;;;;5032055;28;20025;-67
2023/03/07 02:18:32;;;;;;;3.80;1.38;;;12.50;92.60;;;;;;5032637;28;20033;-65
2023/03/07 02:21:19;;;;;;;2.80;1.25;;;12.50;92.60;;;;;;5032502;28;20030;-66
2023/03/07 02:24:23;;;;;;;3.70;1.40;;;12.50;92.60;;;;;;5036552;28;20117;-65
2023/03/07 02:26:52;;;;;;;4.53;1.30;;;12.40;92.60;;;;;;5036554;28;20022;-69
2023/03/07 02:29:17;;;;;;;3.25;1.15;;;12.40;92.70;;;;;;5036375;28;20045;-68
2023/03/07 02:31:43;;;;;;;2.67;1.25;;;12.40;92.60;;;;;;5036247;28;20490;-67
2023/03/07 02:34:26;;;;;;;3.05;1.67;;;12.30;92.60;;;;;;5036458;28;20096;-67
2023/03/07 02:37:04;;;;;;;1.80;1.35;;;12.30;92.60;;;;;;5036371;28;20079;-65
2023/03/07 02:39:30;;;;;;;2.35;1.25;;;12.20;92.70;;;;;;5036187;28;20368;-66
2023/03/07 02:42:00;;;;;;;2.88;0.82;;;12.10;92.90;;;;;;5036109;28;20104;-64
2023/03/07 02:44:26;;;;;;;2.05;1.25;;;12.20;93.00;;;;;;5036432;28;20108;-67
2023/03/07 02:46:52;;;;;;;1.88;1.17;;;12.10;93.00;;;;;;5036105;28;20109;-69
2023/03/07 02:49:17;;;;;;;3.10;1.30;;;12.10;93.00;;;;;;5036092;28;20044;-66
2023/03/07 02:51:43;;;;;;;2.47;1.38;;;12.00;93.20;;;;;;5035951;28;20104;-66
2023/03/07 02:54:08;;;;;;;1.98;1.15;;;12.00;93.30;;;;;;5035889;28;20034;-67
2023/03/07 02:56:34;;;;;;;2.63;1.48;;;11.90;93.30;;;;;;5035992;28;20097;-67
2023/03/07 02:59:00;;;;;;;3.22;1.40;;;11.90;93.40;;;;;;5035796;28;20029;-65
2023/03/07 03:01:25;;;;;;;2.70;1.20;;;11.90;93.40;;;;;;5035815;28;20053;-65
2023/03/07 03:03:51;;;;;;;2.95;1.50;;;11.90;93.40;;;;;;5035923;28;20105;-65
2023/03/07 03:06:17;;;;;;;2.83;1.90;;;11.90;93.50;;;;;;5035869;28;20064;-67
2023/03/07 03:08:42;;;;;;;2.78;1.80;;;11.80;93.50;;;;;;5035789;28;20060;-67
2023/03/07 03:11:08;;;;;;;2.55;1.63;;;11.80;93.50;;;;;;5035690;28;20074;-64
2023/03/07 03:13:34;;;;;;;1.90;1.15;;;11.80;93.60;;;;;;5035558;28;20438;-64
2023/03/07 03:15:59;;;;;;;2.60;1.17;;;11.90;93.60;;;;;;5035623;28;20025;-66
2023/03/07 03:18:28;;;;;;;3.50;2.30;;;11.90;93.60;;;;;;5035416;28;20052;-65
2023/03/07 03:20:54;;;;;;;5.00;2.35;;;11.80;93.60;;;;;;5035704;28;20026;-66
2023/03/07 03:23:19;;;;;;;2.38;1.92;;;11.80;93.70;;;;;;5035488;28;20070;-66
2023/03/07 03:25:45;;;;;;;4.10;2.25;;;11.90;93.60;;;;;;5035261;28;20171;-64
2023/03/07 03:28:12;;;;;;;3.38;2.10;;;11.90;93.50;;;;;;5034827;28;20065;-67
2023/03/07 03:30:39;;;;;;;4.18;2.20;;;12.00;93.50;;;;;;5035376;28;20036;-66
2023/03/07 03:33:04;;;;;;;3.70;2.17;;;11.90;93.50;;;;;;5034816;28;20494;-66
2023/03/07 03:35:30;;;;;;;3.00;2.40;;;11.80;93.60;;;;;;5035399;28;20029;-67
2023/03/07 03:37:56;;;;;;;4.30;3.50;;;11.90;93.60;;;;;;5035251;28;20103;-66
2023/03/07 03:40:22;;;;;;;3.55;3.10;;;11.90;93.60;;;;;;5035270;28;20017;-64
2023/03/07 03:42:49;;;;;;;3.58;3.28;;;11.90;93.60;;;;;;5034562;28;20068;-69
2023/03/07 03:45:15;;;;;;;1.85;1.20;;;11.90;93.60;;;;;;5035014;28;20035;-67
2023/03/07 03:47:41;;;;;;;1.63;1.17;;;11.90;93.40;;;;;;5034942;28;20017;-68
2023/03/07 03:50:07;;;;;;;1.52;0.88;;;12.00;93.40;;;;;;5035141;28;20226;-64
2023/03/07 03:52:35;;;;;;;7.78;4.75;;;12.00;93.30;;;;;;5034739;28;20028;-64
2023/03/07 03:55:00;;;;;;;4.95;3.40;;;12.00;93.30;;;;;;5034988;28;20025;-66
2023/03/07 03:57:26;;;;;;;5.53;3.75;;;12.00;93.30;;;;;;5034390;28;20095;-64
2023/03/07 03:59:51;;;;;;;3.13;2.72;;;12.00;93.30;;;;;;5034907;28;20068;-66
2023/03/07 04:02:17;;;;;;;4.78;3.63;;;12.00;93.30;;;;;;5034650;28;20429;-65
2023/03/07 04:04:42;;;;;;;6.47;4.28;;;12.00;93.40;;;;;;5034668;28;20044;-68
2023/03/07 04:07:08;;;;;;;4.57;2.95;;;11.90;93.50;;;;;;5034553;28;20640;-63
2023/03/07 04:09:33;;;;;;;2.33;1.27;;;12.00;93.40;;;;;;5034580;28;20037;-65
2023/03/07 04:11:59;;;;;;;4.28;3.10;;;12.00;93.20;;;;;;5034161;28;20072;-66
2023/03/07 04:14:25;;;;;;;2.97;2.30;;;12.00;93.20;;;;;;5034293;28;20035;-68
2023/03/07 04:16:50;;;;;;;3.30;2.33;;;12.00;93.30;;;;;;5034635;28;20013;-67
2023/03/07 04:19:16;;;;;;;4.05;1.52;;;12.00;93.20;;;;;;5034399;28;20386;-64
2023/03/07 04:21:42;;;;;;;4.65;3.38;;;12.10;93.10;;;;;;5034323;28;20029;-66
2023/03/07 04:24:08;;;;;;;2.53;2.05;;;12.10;93.10;;;;;;5034426;28;20026;-67
2023/03/07 04:26:35;;;;;;;4.75;3.58;;;12.10;93.10;;;;;;5033862;28;20564;-67
2023/03/07 04:29:01;;;;;;;4.80;2.50;;;12.10;93.10;;;;;;5034034;28;20471;-65
2023/03/07 04:31:27;;;;;;;4.82;2.88;;;12.00;93.10;;;;;;5034232;28;20022;-66
2023/03/07 04:33:54;;;;;;;4.50;3.78;;;12.10;93.00;;;;;;5034115;28;20029;-65
2023/03/07 04:36:20;;;;;;;2.97;2.20;;;12.00;93.10;;;;;;5034255;28;20168;-65
2023/03/07 04:38:47;;;;;;;3.47;2.45;;;12.00;93.10;;;;;;5034059;28;20416;-65
2023/03/07 04:41:15;;;;;;;8.05;4.53;;;12.10;93.00;;;;;;5033763;28;20021;-65
2023/03/07 04:43:41;;;;;;;4.10;3.10;;;12.10;93.00;;;;;;5033605;28;20022;-68
2023/03/07 04:46:08;;;;;;;4.00;3.00;;;12.00;93.10;;;;;;5033518;28;20036;-64
2023/03/07 04:48:34;;;;;;;3.70;3.35;;;12.00;93.10;;;;;;5033665;28;20025;-66
2023/03/07 04:50:59;;;;;;;7.03;5.38;;;12.00;93.00;;;;;;5033901;28;20029;-66
2023/03/07 04:53:25;;;;;;;6.07;3.35;;;12.00;93.10;;;;;;5033598;28;20033;-66
2023/03/07 04:55:59;;;;;;;2.17;1.70;;;12.00;93.10;;;;;;5033595;28;20086;-64
2023/03/07 04:58:29;;;;;;;6.32;4.03;;;12.00;93.10;;;;;;5033600;28;20021;-65
2023/03/07 05:00:57;;;;;;;2.42;1.83;;;12.00;93.10;;;;;;5033691;28;20397;-66
2023/03/07 05:03:25;;;;;;;5.25;3.03;;;11.90;93.10;;;;;;5033643;28;20017;-63
2023/03/07 05:05:50;;;;;;;4.70;3.78;;;11.90;93.10;;;;;;5033831;28;20033;-62
2023/03/07 05:08:16;;;;;;;5.68;3.05;;;11.80;93.50;;;;;;5033566;28;20399;-62
2023/03/07 05:10:42;;;;;;;3.25;2.20;;;11.80;93.20;;;;;;5033027;28;20076;-62
2023/03/07 05:13:07;;;;;;;2.53;1.70;;;11.90;93.20;;;;;;5033290;28;20049;-65
2023/03/07 05:15:34;;;;;;;2.47;1.80;;;11.80;93.20;;;;;;5033546;28;20030;-63
2023/03/07 05:17:59;;;;;;;4.45;2.40;;;11.80;93.20;;;;;;5033378;28;20028;-66
2023/03/07 05:20:25;;;;;;;4.05;2.40;;;11.90;93.20;;;;;;5033679;28;20026;-64
2023/03/07 05:22:51;;;;;;;3.95;2.97;;;11.80;93.20;;;;;;5033208;28;20455;-66
2023/03/07 05:25:17;;;;;;;4.50;2.65;;;11.80;93.20;;;;;;5032928;28;20067;-65
2023/03/07 05:27:42;;;;;;;3.80;2.20;;;11.80;93.30;;;;;;5033033;28;20029;-66
2023/03/07 05:30:10;;;;;;;3.45;2.80;;;11.80;93.20;;;;;;5033149;28;20474;-68
2023/03/07 05:32:35;;;;;;;5.20;3.25;;;11.80;93.30;;;;;;5032967;28;20026;-66
2023/03/07 05:35:01;;;;;;;5.03;3.47;;;11.80;93.30;;;;;;5033082;28;20032;-64
2023/03/07 05:37:26;;;;;;;2.55;1.98;;;11.80;93.30;;;;;;5033040;28;20482;-64
2023/03/07 05:39:52;;;;;;;4.53;2.83;;;11.80;93.20;;;;;;5032675;28;20487;-66
2023/03/07 05:42:18;;;;;;;3.83;2.75;;;11.80;93.20;;;;;;5032343;28;20018;-65
2023/03/07 05:44:43;;;;;;;4.70;2.88;;;11.70;93.30;;;;;;5052458;28;20040;-64
2023/03/07 05:47:09;;;;;;;4.78;2.53;;;11.70;93.30;;;;;;5051124;28;20021;-64
2023/03/07 05:49:34;;;;;;;3.13;2.72;;;11.70;93.30;;;;;;5044622;28;20029;-68
2023/03/07 05:52:00;;;;;;;3.97;1.90;;;11.60;93.30;;;;;;5048855;28;20021;-62
2023/03/07 05:54:26;;;;;;;3.25;1.92;;;11.70;93.30;;;;;;5051415;28;20033;-62
2023/03/07 05:56:51;;;;;;;2.50;1.95;;;11.70;93.30;;;;;;5052490;28;20474;-62
2023/03/07 05:59:17;;;;;;;4.90;3.45;;;11.70;93.30;;;;;;5034675;28;20021;-66
2023/03/07 06:01:42;;;;;;;5.28;2.90;;;11.60;93.30;;;;;;5043388;28;20485;-62
2023/03/07 06:04:08;;;;;;;6.10;3.40;;;11.60;93.30;;;;;;5050249;28;20048;-62
2023/03/07 06:06:34;;;;;;;4.57;3.00;;;11.60;93.40;;;;;;5050533;28;20126;-64
2023/03/07 06:08:59;;;;;;;9.27;3.38;;;11.60;93.40;;;;;;5048655;28;20076;-66
2023/03/07 06:11:25;;;;;;;5.80;3.10;;;11.60;93.90;;;;;;5051145;28;20036;-64
2023/03/07 06:13:51;;;;;;;5.65;3.67;;;11.50;93.90;;;;;;5037802;28;20048;-67
2023/03/07 06:16:16;;;;;;;5.72;3.85;;;11.40;93.60;;;;;;5034724;28;20031;-67
2023/03/07 06:18:42;;;;;;;5.25;4.00;;;11.40;93.60;;;;;;5021210;28;20031;-64
2023/03/07 06:21:09;;;;;;;4.15;3.47;;;11.40;93.60;;;;;;5043703;28;20027;-65
2023/03/07 06:23:36;;;;;;;6.13;3.22;;;11.30;93.70;;;;;;5047651;28;20021;-66
2023/03/07 06:26:02;;;;;;;8.82;3.50;;;11.30;93.70;;;;;;5034936;28;20037;-66
2023/03/07 06:28:29;;;;;;;5.45;3.05;;;11.20;94.10;;;;;;5036675;28;20098;-63
2023/03/07 06:30:55;;;;;;;4.82;3.30;;;11.20;94.00;;;;;;5044446;28;20037;-63
2023/03/07 06:33:20;;;;;;;4.88;3.00;;;11.10;94.00;;;;;;5045718;28;20035;-65
2023/03/07 06:35:46;;;;;;;4.82;3.08;;;11.10;94.20;;;;;;5043697;28;20036;-64
2023/03/07 06:38:14;;;;;;;4.05;2.67;;;11.10;94.20;;;;;;5047830;28;20436;-66
2023/03/07 06:40:40;;;;;;;4.32;3.55;;;11.10;94.30;;;;;;5045387;28;20017;-65
2023/03/07 06:43:05;;;;;;;4.32;3.30;;;11.00;94.30;;;;;;5036647;28;20029;-66
2023/03/07 06:45:31;;;;;;;7.43;3.40;;;11.10;94.20;;;;;;5045328;28;20032;-66
2023/03/07 06:47:57;;;;;;;6.38;3.75;;;11.10;94.30;;;;;;5051273;28;20083;-68
2023/03/07 06:50:22;;;;;;;7.95;4.40;;;11.10;94.40;;;;;;5041584;28;20060;-64
2023/03/07 06:52:50;;;;;;;7.88;4.68;;;11.10;94.60;;;;;;5050877;28;20033;-65
2023/03/07 06:55:19;;;;;;;10.52;5.00;;;11.10;94.70;;;;;;5047487;28;20009;-66
2023/03/07 06:57:44;;;;;;;5.63;3.47;;;11.10;94.80;;;;;;5045339;28;21448;-65
2023/03/07 07:00:11;;;;;;;7.80;5.25;;;11.10;95.30;;;;;;5047177;28;20017;-67
2023/03/07 07:02:37;;;;;;;8.32;5.18;;;11.00;95.00;;;;;;5045009;28;20616;-64
2023/03/07 07:05:03;;;;;;;9.02;5.60;;;11.00;94.90;;;;;;5030693;28;20028;-64
2023/03/07 07:07:29;;;;;;;8.00;5.35;;;11.00;95.00;;;;;;5035607;28;20037;-65
2023/03/07 07:09:54;;;;;;;8.65;5.60;;;10.90;95.00;;;;;;5051631;28;20513;-71
2023/03/07 07:12:20;;;;;;;7.55;5.80;;;10.90;95.00;;;;;;5054084;28;20021;-66
2023/03/07 07:14:45;;;;;;;12.52;7.40;;;10.90;95.10;;;;;;5052623;28;20477;-71
2023/03/07 07:17:11;;;;;;;7.65;4.97;;;11.00;95.30;;;;;;5049902;28;20036;-64
2023/03/07 07:19:37;;;;;;;8.82;5.72;;;10.90;95.50;;;;;;5053949;28;20032;-64
2023/03/07 07:22:02;;;;;;;8.18;5.50;;;10.90;95.60;;;;;;5053912;28;20044;-66
2023/03/07 07:24:28;;;;;;;8.00;3.63;;;10.90;95.80;;;;;;5055361;28;20017;-64
2023/03/07 07:26:54;;;;;;;4.07;2.75;;;10.90;95.50;;;;;;5055281;28;20029;-63
2023/03/07 07:29:20;;;;;;;2.63;2.08;;;10.90;95.60;;;;;;5055088;28;20060;-64
2023/03/07 07:31:46;;;;;;;3.88;2.10;;;10.80;95.30;;;;;;5055223;28;20121;-64
2023/03/07 07:34:11;;;;;;;4.13;2.47;;;10.80;95.20;;;;;;5055027;28;20040;-64
2023/03/07 07:36:37;;;;;;;3.13;2.10;;;10.80;95.20;;;;;;5055493;28;20029;-66
2023/03/07 07:39:06;;;;;;;4.70;2.10;;;10.80;95.20;;;;;;5055233;28;20108;-64
2023/03/07 07:41:32;;;;;;;4.25;1.75;;;10.70;95.00;;;;;;5054929;28;20025;-65
2023/03/07 07:43:58;;;;;;;2.80;2.10;;;10.70;95.20;;;;;;5054704;28;20029;-64
2023/03/07 07:46:24;;;;;;;3.28;2.17;;;10.70;95.30;;;;;;5055008;28;20021;-65
2023/03/07 07:48:49;;;;;;;3.78;2.63;;;10.70;95.30;;;;;;5054610;28;20385;-64
2023/03/07 07:51:15;;;;;;;4.90;2.65;;;10.70;95.40;;;;;;5054928;28;20075;-66
2023/03/07 07:53:41;;;;;;;3.63;2.50;;;10.70;95.50;;;;;;5054813;28;20021;-64
2023/03/07 07:56:07;;;;;;;3.63;2.58;;;10.70;95.50;;;;;;5054757;28;20091;-64
2023/03/07 07:58:32;;;;;;;4.22;3.28;;;10.70;95.50;;;;;;5054649;28;20033;-64
2023/03/07 08:00:58;;;;;;;4.60;2.92;;;10.60;95.60;;;;;;5054812;28;20017;-64
2023/03/07 08:03:24;;;;;;;4.95;2.65;;;10.60;95.70;;;;;;5054356;28;20034;-66
2023/03/07 08:05:49;;;;;;;6.53;3.75;;;10.60;95.70;;;;;;5054390;28;20390;-64
2023/03/07 08:08:18;;;;;;;5.78;3.65;;;10.60;95.70;;;;;;5054589;28;20091;-64
2023/03/07 08:10:47;;;;;;;7.28;4.40;;;10.70;95.70;;;;;;5054735;28;20032;-64
2023/03/07 08:13:14;;;;;;;5.78;4.40;;;10.70;95.60;;;;;;5054468;28;20378;-64
2023/03/07 08:15:41;;;;;;;6.97;4.70;;;10.60;95.60;;;;;;5054969;28;20021;-65
2023/03/07 08:18:06;;;;;;;6.47;4.07;;;10.60;95.70;;;;;;5053887;28;20094;-64
2023/03/07 08:20:32;;;;;;;7.88;4.55;;;10.60;95.70;;;;;;5053278;28;20421;-64
2023/03/07 08:22:57;;;;;;;3.78;2.78;;;10.70;95.80;;;;;;5054230;28;20068;-64
2023/03/07 08:25:23;;;;;;;3.42;2.63;;;10.80;95.40;;;;;;5054408;28;20079;-64
2023/03/07 08:27:53;;;;;;;3.70;2.20;;;10.70;95.00;;;;;;5053985;28;20025;-64
2023/03/07 08:30:24;;;;;;;4.75;2.20;;;10.80;94.70;;;;;;5054213;28;20060;-65
2023/03/07 08:32:51;;;;;;;3.70;1.70;;;10.80;94.30;;;;;;5053773;28;20092;-65
2023/03/07 08:35:17;;;;;;;2.78;1.52;;;10.70;94.40;;;;;;5054143;28;20074;-64
2023/03/07 08:37:43;;;;;;;2.50;1.65;;;10.80;94.30;;;;;;5054019;28;20033;-63
2023/03/07 08:40:09;;;;;;;2.83;1.80;;;10.70;94.20;;;;;;5053969;28;20382;-64
2023/03/07 08:42:35;;;;;;;2.53;1.42;;;10.70;94.20;;;;;;5054031;28;20032;-64
2023/03/07 08:45:00;;;;;;;2.92;1.60;;;10.70;94.20;;;;;;5053705;28;20017;-64
2023/03/07 08:47:26;;;;;;;5.82;2.25;;;10.70;94.20;;;;;;5053595;28;20158;-64
2023/03/07 08:49:51;;;;;;;3.88;2.42;;;10.60;94.20;;;;;;5053631;28;20040;-64
2023/03/07 08:52:17;;;;;;;3.72;2.05;;;10.60;94.20;;;;;;5053920;28;20109;-64
2023/03/07 08:54:42;;;;;;;4.53;2.20;;;10.60;94.60;;;;;;5054076;28;20104;-64
2023/03/07 08:57:08;;;;;;;4.05;1.90;;;10.60;94.90;;;;;;5053757;28;20092;-64
2023/03/07 08:59:34;;;;;;;3.45;2.50;;;10.60;94.80;;;;;;5053368;28;20173;-65
2023/03/07 09:01:59;;;;;;;2.60;2.03;;;10.60;94.60;;;;;;5053208;28;20040;-64
2023/03/07 09:04:25;;;;;;;3.85;2.42;;;10.60;94.60;;;;;;5053376;28;20025;-64
2023/03/07 09:06:51;;;;;;;3.22;2.67;;;10.60;94.70;;;;;;5035595;28;20086;-65
2023/03/07 09:09:17;;;;;;;3.17;2.88;;;10.50;94.60;;;;;;5053030;28;20037;-64
2023/03/07 09:11:42;;;;;;;3.22;2.58;;;10.50;94.50;;;;;;5053454;28;20075;-66
2023/03/07 09:14:08;;;;;;;4.82;3.28;;;10.50;94.70;;;;;;5053245;28;20033;-63
2023/03/07 09:16:34;;;;;;;3.42;2.97;;;10.60;94.60;;;;;;5053579;28;20108;-64
2023/03/07 09:19:00;;;;;;;4.50;3.60;;;10.50;94.60;;;;;;5053238;28;20032;-64
2023/03/07 09:21:25;;;;;;;4.55;2.97;;;10.50;94.70;;;;;;5053448;28;20060;-64
2023/03/07 09:23:51;;;;;;;3.33;3.00;;;10.50;94.60;;;;;;5053326;28;20025;-64
2023/03/07 09:26:16;;;;;;;5.88;4.47;;;10.50;94.50;;;;;;5053155;28;20474;-64
2023/03/07 09:28:42;;;;;;;4.38;3.97;;;10.60;94.60;;;;;;5053053;28;20041;-64
2023/03/07 09:31:10;;;;;;;4.85;4.30;;;10.60;94.40;;;;;;5052002;28;20482;-64
2023/03/07 09:33:36;;;;;;;4.78;4.38;;;10.60;94.00;;;;;;5053052;28;20051;-64
2023/03/07 09:36:06;;;;;;;5.97;5.38;;;10.50;93.90;;;;;;5052804;28;20021;-64
2023/03/07 09:38:32;;;;;;;5.97;5.47;;;10.50;93.90;;;;;;5052794;28;20036;-63
2023/03/07 09:41:04;;;;;;;6.80;6.10;;;10.50;94.00;;;;;;5052809;28;20021;-64
2023/03/07 09:43:39;;;;;;;;;;;10.50;94.00;;;;;;5053293;28;20033;-64
2023/03/07 09:46:35;;;;;;;5.90;5.28;;;10.50;94.00;;;;;;5052432;28;19958;-63
2023/03/07 09:49:16;;;;;;;4.72;4.25;;;10.40;94.20;;;;;;5052812;28;20025;-63
2023/03/07 09:51:44;;;;;;;6.50;5.72;;;10.50;94.00;;;;;;5052482;28;20513;-63
2023/03/07 09:54:26;;;;;;;5.18;4.78;;;10.50;93.80;;;;;;5052798;28;20032;-64
2023/03/07 09:56:55;;;;;;;6.10;4.38;;;10.50;93.90;;;;;;5052864;28;20466;-63
2023/03/07 09:59:35;;;;;;;4.65;3.60;;;10.50;93.70;;;;;;5052370;28;20025;-64
2023/03/07 10:02:09;;;;;;;3.67;3.35;;;10.50;93.50;;;;;;5052232;28;20492;-64
2023/03/07 10:04:48;;;;;;;3.35;3.05;;;10.40;93.70;;;;;;5052163;28;20070;-63
2023/03/07 10:07:15;;;;;;;3.50;3.10;;;10.40;94.00;;;;;;5035794;28;20032;-63
2023/03/07 10:09:42;;;;;;;4.10;3.53;;;10.40;93.80;;;;;;5052439;28;20021;-63
2023/03/07 10:12:43;;;;;;;5.20;3.03;;;10.40;93.70;;;;;;5052431;28;20032;-64
2023/03/07 10:15:35;;;;;;;2.92;2.72;;;10.40;93.70;;;;;;5052216;28;20033;-65
2023/03/07 10:18:23;;;;;;;3.72;3.42;;;10.40;93.30;;;;;;5048726;28;20037;-64
2023/03/07 10:21:01;;;;;;;5.38;4.88;;;10.50;93.30;;;;;;5052169;28;20070;-65
2023/03/07 10:24:07;;;;;;;5.80;5.22;;;10.40;93.10;;;;;;5034570;28;20039;-64
2023/03/07 10:26:44;;;;;;;3.83;3.53;;;10.40;93.60;;;;;;5052295;28;20029;-64
2023/03/07 10:29:16;;;;;;;3.22;2.92;;;10.40;93.40;;;;;;5051968;28;20029;-63
2023/03/07 10:31:47;;;;;;;2.80;2.50;;;10.40;93.60;;;;;;5052244;28;20044;-63
2023/03/07 10:34:24;;;;;;;3.57;2.90;;;10.40;93.40;;;;;;5052384;28;20231;-64
2023/03/07 10:36:54;;;;;;;4.20;3.80;;;10.40;93.50;;;;;;5052219;28;20032;-63
2023/03/07 10:39:22;;;;;;;4.28;3.40;;;10.40;93.70;;;;;;5052154;28;20021;-63
2023/03/07 10:41:48;;;;;;;3.97;3.53;;;10.30;93.90;;;;;;5052019;28;20038;-63
2023/03/07 10:44:18;;;;;;;4.35;3.63;;;10.30;94.10;;;;;;5055235;28;20410;-63
2023/03/07 10:46:45;;;;;;;2.95;2.47;;;10.40;93.90;;;;;;5056124;28;20078;-63
2023/03/07 10:49:28;;;;;;;4.57;3.95;;;10.40;93.80;;;;;;5056248;28;20130;-64
2023/03/07 10:52:26;;;;;;;8.20;6.68;;;10.40;93.50;;;;;;5055807;28;20049;-63
2023/03/07 10:54:51;;;;;;;4.57;3.42;;;10.40;93.30;;;;;;5011663;28;20037;-63
2023/03/07 10:57:24;;;;;;;5.72;4.53;;;10.40;93.40;;;;;;5055598;28;20036;-63
2023/03/07 10:59:50;;;;;;;5.13;4.25;;;10.30;93.90;;;;;;5056342;28;20013;-63
2023/03/07 11:02:34;;;;;;;6.43;5.45;;;10.30;94.00;;;;;;5055760;28;20355;-66
2023/03/07 11:05:01;;;;;;;8.63;6.45;;;10.30;94.30;;;;;;5055668;28;20025;-63
2023/03/07 11:07:33;;;;;;;9.25;7.05;;;10.40;93.90;;;;;;5055347;28;20029;-64
2023/03/07 11:10:01;;;;;;;9.30;7.57;;;10.40;93.80;;;;;;5055775;28;20029;-63
2023/03/07 11:12:29;;;;;;;8.65;6.50;;;10.40;93.80;;;;;;5055396;28;20049;-65
2023/03/07 11:15:23;;;;;;;8.73;7.70;;;10.40;93.80;;;;;;5055651;28;20032;-63
2023/03/07 11:17:50;;;;;;;9.68;7.97;;;10.40;94.20;;;;;;5052807;28;20044;-64
2023/03/07 11:20:26;;;;;;;10.35;8.30;;;10.30;94.10;;;;;;5055455;28;20047;-63
2023/03/07 11:23:29;;;;;;;10.82;9.73;;;9.80;95.30;;;;;;5055627;28;20078;-63
2023/03/07 11:26:12;;;;;;;9.27;8.20;;;9.60;96.30;;;;;;5052994;28;20453;-64
2023/03/07 11:28:38;;;;;;;10.68;9.57;;;9.50;96.20;;;;;;5055383;28;20036;-63
2023/03/07 11:31:25;;;;;;;16.67;10.98;;;9.20;97.30;;;;;;5055522;28;20108;-63
2023/03/07 11:34:00;;;;;;;11.73;10.23;;;9.10;96.90;;;;;;5055147;28;20090;-63
2023/03/07 11:36:35;;;;;;;12.50;11.20;;;9.40;95.90;;;;;;5055463;28;20100;-63
2023/03/07 11:39:40;;;;;;;16.65;14.65;;;9.60;94.90;;;;;;5055128;28;20111;-64
2023/03/07 11:42:22;;;;;;;14.98;13.48;;;9.60;94.80;;;;;;5051173;28;20090;-63
2023/03/07 11:44:53;;;;;;;18.58;16.58;;;9.70;94.20;;;;;;5055189;28;20029;-64
2023/03/07 11:47:32;;;;;;;16.55;14.85;;;9.80;94.10;;;;;;5055000;28;20359;-64
2023/03/07 11:50:04;;;;;;;16.85;15.05;;;9.80;94.00;;;;;;5054996;28;20052;-65
2023/03/07 11:52:43;;;;;;;19.23;17.30;;;9.90;94.40;;;;;;5054704;28;20039;-64
2023/03/07 11:55:24;;;;;;;18.05;16.15;;;10.00;94.10;;;;;;5054529;28;20382;-64
2023/03/07 11:58:27;;;;;;;16.20;14.50;;;10.00;94.10;;;;;;5054683;28;20032;-64
2023/03/07 12:00:58;;;;;;;14.52;13.02;;;10.00;93.70;;;;;;5055343;28;20025;-64
2023/03/07 12:03:42;;;;;;;13.75;12.10;;;10.00;94.20;;;;;;5054900;28;20108;-64
2023/03/07 12:06:27;;;;;;;12.52;11.32;;;10.00;93.90;;;;;;5054559;28;20061;-64
2023/03/07 12:09:30;;;;;;;12.82;11.65;;;10.00;93.70;;;;;;5054551;28;20072;-64
2023/03/07 12:11:58;;;;;;;11.27;10.27;;;10.10;93.70;;;;;;5054367;28;20037;-63
2023/03/07 12:14:56;;;;;;;11.00;10.00;;;10.10;94.10;;;;;;5054459;28;20025;-63
2023/03/07 12:17:43;;;;;;;10.38;9.48;;;10.10;93.60;;;;;;5054430;28;20033;-63
2023/03/07 12:20:29;;;;;;;7.32;6.72;;;10.10;93.90;;;;;;5054452;28;20075;-63
2023/03/07 12:23:08;;;;;;;6.90;6.30;;;10.10;93.80;;;;;;5054327;28;20024;-63
2023/03/07 12:25:38;;;;;;;7.47;6.88;;;10.10;93.60;;;;;;5054097;28;20478;-64
2023/03/07 12:28:25;;;;;;;5.80;5.30;;;10.20;93.70;;;;;;5054207;28;20036;-63
2023/03/07 12:31:18;;;;;;;6.25;5.68;;;10.20;94.00;;;;;;5054357;28;20452;-64
2023/03/07 12:34:02;;;;;;;5.68;5.28;;;10.20;94.10;;;;;;5054088;28;20031;-64
2023/03/07 12:37:00;;;;;;;5.88;5.20;;;10.20;94.10;;;;;;5053823;28;20044;-64
2023/03/07 12:39:41;;;;;;;5.45;4.95;;;10.20;94.20;;;;;;5035974;28;20044;-64
2023/03/07 12:42:21;;;;;;;4.68;4.10;;;10.20;94.60;;;;;;5054030;28;20554;-64
2023/03/07 12:45:16;;;;;;;3.58;3.28;;;10.20;94.40;;;;;;5053799;28;20071;-64
2023/03/07 12:47:41;;;;;;;3.47;3.17;;;10.30;94.60;;;;;;5052096;28;20033;-64
2023/03/07 12:50:19;;;;;;;2.80;2.60;;;10.30;94.80;;;;;;5053822;28;20051;-64
2023/03/07 12:52:46;;;;;;;2.80;2.60;;;10.30;94.80;;;;;;5053767;28;20036;-63
2023/03/07 12:55:29;;;;;;;2.88;2.38;;;10.30;94.60;;;;;;5053375;28;20101;-63
2023/03/07 12:58:16;;;;;;;3.28;2.88;;;10.30;94.50;;;;;;5054064;28;20029;-64